createdAt,value
2019-01-21T00:01:56.034Z,72.85
2019-01-21T00:04:27.567Z,73.12
2019-01-21T00:07:00.163Z,73.45
2019-01-21T00:09:31.779Z,72.58
2019-01-21T00:12:04.677Z,72.88
2019-01-21T00:14:36.136Z,73.00
2019-01-21T00:17:09.273Z,73.10
2019-01-21T00:19:41.978Z,73.03
2019-01-21T00:22:13.213Z,73.25
2019-01-21T00:24:46.149Z,73.37
2019-01-21T00:27:17.367Z,73.14
2019-01-21T00:29:49.498Z,72.99
2019-01-21T00:32:22.282Z,72.00
2019-01-21T00:34:54.617Z,72.59
2019-01-21T00:37:27.011Z,72.95
2019-01-21T00:39:58.244Z,72.97
2019-01-21T00:42:29.467Z,73.08
2019-01-21T00:45:02.798Z,73.24
2019-01-21T00:47:36.215Z,73.43
2019-01-21T00:50:09.102Z,73.20
2019-01-21T00:52:41.365Z,72.82
2019-01-21T00:55:15.467Z,73.56
2019-01-21T00:57:48.402Z,73.61
2019-01-21T01:00:23.162Z,73.53
2019-01-21T01:02:58.562Z,73.82
2019-01-21T01:05:31.370Z,73.89
2019-01-21T01:08:02.689Z,73.83
2019-01-21T01:10:34.303Z,73.99
2019-01-21T01:13:09.557Z,74.86
2019-01-21T01:15:41.279Z,75.56
2019-01-21T01:18:12.586Z,75.17
2019-01-21T01:20:43.798Z,75.08
2019-01-21T01:23:17.358Z,74.26
2019-01-21T01:25:51.240Z,74.16
2019-01-21T01:28:22.490Z,74.83
2019-01-21T01:30:56.397Z,76.27
2019-01-21T01:33:29.407Z,76.86
2019-01-21T01:36:03.866Z,76.97
2019-01-21T01:38:37.693Z,77.26
2019-01-21T01:41:11.446Z,77.12
2019-01-21T01:43:45.392Z,76.71
2019-01-21T01:46:19.481Z,76.43
2019-01-21T01:48:53.417Z,75.77
2019-01-21T01:51:24.737Z,76.50
2019-01-21T01:53:57.520Z,77.57
2019-01-21T01:56:31.236Z,76.79
2019-01-21T01:59:02.503Z,77.01
2019-01-21T02:01:34.392Z,77.38
2019-01-21T02:04:05.626Z,77.12
2019-01-21T02:06:37.844Z,76.41
2019-01-21T02:09:13.305Z,76.35
2019-01-21T02:11:44.717Z,76.42
2019-01-21T02:14:18.849Z,76.15
2019-01-21T02:16:52.624Z,76.07
2019-01-21T02:19:30.435Z,75.65
2019-01-21T02:22:01.683Z,76.22
2019-01-21T02:24:37.833Z,76.28
2019-01-21T02:27:20.729Z,77.67
2019-01-21T02:30:35.834Z,77.09
2019-01-21T02:33:47.218Z,77.06
2019-01-21T02:37:00.659Z,75.64
2019-01-21T02:39:50.917Z,75.72
2019-01-21T02:42:57.012Z,75.36
2019-01-21T02:46:07.625Z,75.52
2019-01-21T02:49:05.853Z,74.94
2019-01-21T02:52:18.380Z,74.71
2019-01-21T02:55:06.960Z,75.16
2019-01-21T02:58:12.171Z,75.18
2019-01-21T03:01:00.942Z,74.89
2019-01-21T03:04:24.420Z,74.81
2019-01-21T03:07:27.360Z,75.10
2019-01-21T03:10:23.047Z,75.13
2019-01-21T03:13:16.276Z,75.26
2019-01-21T03:16:16.435Z,75.17
2019-01-21T03:19:13.507Z,75.41
2019-01-21T03:22:38.642Z,75.56
2019-01-21T03:25:58.645Z,75.39
2019-01-21T03:29:12.972Z,75.67
2019-01-21T03:32:36.821Z,75.66
2019-01-21T03:35:38.362Z,75.59
2019-01-21T03:38:46.646Z,75.51
2019-01-21T03:42:02.238Z,75.35
2019-01-21T03:45:32.031Z,75.46
2019-01-21T03:48:28.782Z,75.25
2019-01-21T03:51:50.932Z,75.39
2019-01-21T03:54:29.936Z,75.44
2019-01-21T03:57:33.835Z,75.63
2019-01-21T04:00:43.232Z,75.30
2019-01-21T04:03:46.594Z,74.82
2019-01-21T04:06:27.382Z,74.81
2019-01-21T04:09:32.950Z,75.53
2019-01-21T04:12:34.383Z,74.47
2019-01-21T04:15:25.496Z,75.48
2019-01-21T04:18:24.843Z,76.23
2019-01-21T04:21:54.867Z,75.56
2019-01-21T04:24:46.469Z,75.30
2019-01-21T04:27:54.812Z,74.79
2019-01-21T04:31:03.269Z,75.10
2019-01-21T04:34:08.716Z,74.81
2019-01-21T04:37:13.216Z,74.76
2019-01-21T04:40:14.953Z,73.86
2019-01-21T04:43:25.329Z,73.91
2019-01-21T04:46:29.784Z,73.70
2019-01-21T04:49:39.091Z,72.94
2019-01-21T04:52:59.423Z,74.13
2019-01-21T04:56:06.214Z,74.04
2019-01-21T04:59:04.499Z,74.00
2019-01-21T05:02:20.431Z,74.40
2019-01-21T05:05:04.631Z,74.39
2019-01-21T05:08:23.214Z,74.03
2019-01-21T05:11:15.629Z,74.08
2019-01-21T05:14:23.459Z,74.37
2019-01-21T05:17:32.440Z,73.27
2019-01-21T05:20:47.885Z,73.80
2019-01-21T05:24:12.215Z,74.18
2019-01-21T05:27:16.018Z,73.80
2019-01-21T05:30:27.394Z,73.80
2019-01-21T05:33:52.739Z,73.29
2019-01-21T05:37:02.958Z,73.44
2019-01-21T05:39:49.071Z,73.12
2019-01-21T05:42:51.138Z,73.06
2019-01-21T05:45:58.468Z,73.06
2019-01-21T05:49:16.461Z,72.84
2019-01-21T05:52:50.956Z,73.64
2019-01-21T05:55:59.607Z,73.48
2019-01-21T05:59:20.741Z,73.48
2019-01-21T06:02:21.476Z,73.07
2019-01-21T06:05:28.585Z,73.08
2019-01-21T06:08:40.003Z,72.85
2019-01-21T06:11:38.766Z,73.28
2019-01-21T06:15:04.625Z,73.28
2019-01-21T06:18:24.712Z,73.36
2019-01-21T06:21:42.036Z,73.07
2019-01-21T06:24:57.554Z,73.59
2019-01-21T06:28:04.274Z,72.86
2019-01-21T06:31:21.172Z,72.48
2019-01-21T06:34:30.675Z,72.90
2019-01-21T06:37:18.927Z,72.90
2019-01-21T06:40:31.602Z,71.30
2019-01-21T06:43:42.781Z,71.78
2019-01-21T06:47:10.991Z,71.78
2019-01-21T06:50:13.018Z,71.87
2019-01-21T06:53:14.280Z,72.64
2019-01-21T06:56:14.139Z,72.98
2019-01-21T06:59:08.368Z,72.98
2019-01-21T07:02:19.742Z,72.17
2019-01-21T07:05:32.930Z,72.18
2019-01-21T07:08:44.028Z,72.18
2019-01-21T07:11:45.782Z,71.93
2019-01-21T07:14:58.330Z,73.17
2019-01-21T07:18:19.682Z,73.17
2019-01-21T07:21:25.937Z,72.53
2019-01-21T07:24:39.017Z,72.81
2019-01-21T07:27:49.811Z,72.81
2019-01-21T07:31:02.651Z,73.08
2019-01-21T07:34:05.810Z,72.80
2019-01-21T07:37:37.028Z,73.13
2019-01-21T07:40:56.375Z,72.83
2019-01-21T07:44:33.273Z,72.54
2019-01-21T07:47:58.094Z,72.38
2019-01-21T07:51:15.372Z,72.38
2019-01-21T07:54:19.516Z,70.69
2019-01-21T07:57:27.261Z,71.95
2019-01-21T08:00:35.119Z,72.80
2019-01-21T08:03:42.055Z,72.46
2019-01-21T08:06:26.498Z,72.58
2019-01-21T08:09:23.660Z,72.47
2019-01-21T08:12:39.626Z,72.44
2019-01-21T08:15:42.385Z,70.99
2019-01-21T08:19:11.403Z,70.58
2019-01-21T08:22:47.418Z,70.33
2019-01-21T08:26:00.182Z,69.42
2019-01-21T08:29:07.051Z,69.58
2019-01-21T08:32:26.406Z,68.76
2019-01-21T08:35:21.540Z,67.94
2019-01-21T08:38:26.674Z,67.92
2019-01-21T08:41:29.445Z,66.45
2019-01-21T08:44:43.648Z,65.89
2019-01-21T08:47:40.220Z,64.39
2019-01-21T08:50:49.156Z,63.03
2019-01-21T08:53:57.823Z,63.58
2019-01-21T08:57:20.267Z,64.13
2019-01-21T09:00:30.223Z,65.12
2019-01-21T09:03:35.864Z,64.66
2019-01-21T09:06:45.786Z,61.32
2019-01-21T09:09:56.258Z,57.05
2019-01-21T09:13:13.215Z,56.87
2019-01-21T09:16:12.165Z,57.82
2019-01-21T09:19:25.811Z,57.80
2019-01-21T09:22:38.813Z,57.46
2019-01-21T09:25:52.436Z,57.30
2019-01-21T09:28:37.857Z,52.74
2019-01-21T09:31:54.727Z,53.61
2019-01-21T09:35:05.535Z,51.06
2019-01-21T09:38:21.539Z,49.27
2019-01-21T09:41:25.422Z,50.33
2019-01-21T09:44:14.649Z,50.34
2019-01-21T09:46:45.873Z,48.52
2019-01-21T09:49:15.998Z,49.34
2019-01-21T09:52:11.910Z,48.17
2019-01-21T09:54:43.762Z,44.75
2019-01-21T09:57:22.638Z,44.33
2019-01-21T09:59:57.627Z,45.50
2019-01-21T10:02:43.993Z,45.58
2019-01-21T10:05:18.950Z,44.37
2019-01-21T10:08:39.281Z,49.03
2019-01-21T10:11:29.575Z,47.03
2019-01-21T10:14:39.637Z,47.24
2019-01-21T10:17:49.467Z,46.86
2019-01-21T10:21:01.947Z,50.27
2019-01-21T10:24:13.831Z,45.61
2019-01-21T10:27:37.514Z,46.79
2019-01-21T10:30:57.018Z,47.17
2019-01-21T10:33:58.475Z,44.80
2019-01-21T10:37:08.644Z,45.51
2019-01-21T10:40:22.330Z,41.11
2019-01-21T10:43:24.535Z,40.75
2019-01-21T10:46:08.794Z,43.86
2019-01-21T10:49:12.586Z,44.65
2019-01-21T10:52:20.526Z,43.68
2019-01-21T10:55:03.872Z,44.91
2019-01-21T10:57:47.588Z,46.32
2019-01-21T11:00:49.380Z,42.01
2019-01-21T11:04:04.827Z,40.69
2019-01-21T11:07:00.286Z,41.28
2019-01-21T11:10:00.286Z,41.32
2019-01-21T11:13:04.748Z,40.80
2019-01-21T11:15:51.117Z,41.47
2019-01-21T11:18:47.558Z,40.00
2019-01-21T11:21:44.692Z,41.01
2019-01-21T11:25:04.369Z,43.65
2019-01-21T11:27:54.479Z,42.48
2019-01-21T11:31:03.136Z,40.19
2019-01-21T11:33:49.174Z,39.92
2019-01-21T11:36:58.159Z,38.20
2019-01-21T11:40:08.796Z,39.60
2019-01-21T11:43:40.250Z,37.28
2019-01-21T11:46:23.610Z,39.30
2019-01-21T11:49:17.513Z,40.59
2019-01-21T11:52:10.068Z,39.78
2019-01-21T11:55:11.101Z,36.75
2019-01-21T11:58:15.216Z,37.56
2019-01-21T12:01:32.598Z,38.56
2019-01-21T12:04:15.768Z,36.98
2019-01-21T12:06:55.482Z,36.12
2019-01-21T12:10:03.967Z,39.08
2019-01-21T12:13:15.490Z,38.04
2019-01-21T12:16:21.132Z,39.95
2019-01-21T12:19:16.335Z,39.11
2019-01-21T12:22:36.882Z,37.62
2019-01-21T12:25:26.120Z,34.42
2019-01-21T12:28:38.986Z,34.36
2019-01-21T12:32:09.765Z,34.85
2019-01-21T12:35:05.616Z,33.98
2019-01-21T12:38:23.146Z,33.64
2019-01-21T12:41:44.239Z,35.50
2019-01-21T12:44:49.350Z,40.56
2019-01-21T12:47:40.416Z,41.86
2019-01-21T12:51:01.096Z,41.28
2019-01-21T12:54:15.430Z,45.02
2019-01-21T12:57:41.638Z,45.28
2019-01-21T13:00:43.148Z,45.56
2019-01-21T13:03:51.231Z,43.47
2019-01-21T13:06:53.185Z,43.31
2019-01-21T13:09:40.379Z,43.85
2019-01-21T13:12:42.323Z,43.01
2019-01-21T13:15:42.604Z,43.38
2019-01-21T13:19:04.847Z,44.38
2019-01-21T13:22:14.967Z,44.72
2019-01-21T13:25:14.255Z,41.97
2019-01-21T13:28:37.544Z,39.34
2019-01-21T13:31:27.770Z,39.78
2019-01-21T13:34:45.334Z,41.65
2019-01-21T13:37:43.364Z,38.67
2019-01-21T13:40:51.203Z,39.26
2019-01-21T13:43:50.829Z,36.98
2019-01-21T13:46:45.277Z,37.80
2019-01-21T13:49:28.001Z,35.59
2019-01-21T13:52:44.711Z,34.15
2019-01-21T13:55:26.552Z,33.56
2019-01-21T13:58:37.360Z,33.85
2019-01-21T14:01:41.649Z,32.90
2019-01-21T14:04:54.356Z,32.18
2019-01-21T14:08:20.604Z,30.77
2019-01-21T14:11:30.044Z,31.29
2019-01-21T14:14:35.315Z,31.46
2019-01-21T14:17:24.336Z,34.00
2019-01-21T14:20:44.714Z,35.11
2019-01-21T14:23:44.395Z,34.63
2019-01-21T14:26:36.715Z,33.96
2019-01-21T14:30:02.687Z,33.81
2019-01-21T14:33:13.039Z,32.50
2019-01-21T14:36:18.649Z,34.86
2019-01-21T14:39:22.692Z,37.03
2019-01-21T14:42:31.733Z,37.57
2019-01-21T14:45:28.289Z,38.18
2019-01-21T14:48:38.978Z,38.42
2019-01-21T14:52:17.340Z,38.91
2019-01-21T14:55:27.530Z,40.37
2019-01-21T14:58:30.953Z,43.04
2019-01-21T15:01:40.950Z,44.34
2019-01-21T15:04:59.163Z,46.81
2019-01-21T15:08:01.020Z,46.98
2019-01-21T15:11:28.252Z,49.23
2019-01-21T15:14:20.531Z,51.64
2019-01-21T15:17:21.776Z,52.79
2019-01-21T15:20:30.200Z,52.88
2019-01-21T15:23:37.624Z,54.67
2019-01-21T15:26:44.986Z,54.85
2019-01-21T15:29:45.171Z,55.10
2019-01-21T15:32:49.533Z,56.28
2019-01-21T15:36:13.648Z,56.60
2019-01-21T15:39:28.874Z,58.60
2019-01-21T15:42:41.559Z,58.84
2019-01-21T15:46:15.372Z,58.56
2019-01-21T15:49:13.429Z,59.83
2019-01-21T15:52:17.365Z,60.01
2019-01-21T15:55:27.041Z,60.09
2019-01-21T15:58:42.842Z,60.52
2019-01-21T16:01:52.257Z,60.51
2019-01-21T16:04:37.103Z,60.93
2019-01-21T16:07:32.511Z,61.55
2019-01-21T16:10:57.070Z,60.41
2019-01-21T16:13:43.237Z,60.91
2019-01-21T16:16:50.099Z,60.54
2019-01-21T16:19:36.412Z,60.40
2019-01-21T16:22:41.147Z,60.46
2019-01-21T16:25:44.042Z,61.85
2019-01-21T16:28:41.411Z,62.37
2019-01-21T16:32:11.344Z,63.15
2019-01-21T16:35:25.198Z,62.59
2019-01-21T16:38:39.081Z,62.12
2019-01-21T16:42:00.990Z,62.77
2019-01-21T16:44:32.470Z,62.59
2019-01-21T16:47:03.851Z,61.62
2019-01-21T16:49:38.677Z,62.04
2019-01-21T16:52:10.302Z,62.03
2019-01-21T16:54:43.358Z,62.02
2019-01-21T16:57:16.026Z,61.77
2019-01-21T16:59:47.285Z,61.67
2019-01-21T17:02:21.259Z,61.79
2019-01-21T17:04:54.558Z,61.61
2019-01-21T17:07:25.967Z,62.15
2019-01-21T17:10:00.685Z,62.02
2019-01-21T17:12:33.604Z,62.79
2019-01-21T17:15:08.764Z,62.69
2019-01-21T17:17:41.546Z,62.41
2019-01-21T17:20:19.090Z,62.50
2019-01-21T17:22:52.858Z,62.34
2019-01-21T17:25:25.492Z,62.26
2019-01-21T17:27:57.491Z,62.65
2019-01-21T17:30:30.309Z,63.65
2019-01-21T17:33:02.659Z,63.30
2019-01-21T17:35:36.750Z,62.67
2019-01-21T17:38:09.637Z,63.77
2019-01-21T17:40:41.829Z,64.41
2019-01-21T17:43:15.846Z,63.52
2019-01-21T17:45:49.243Z,64.05
2019-01-21T17:48:22.722Z,63.96
2019-01-21T17:50:56.755Z,63.83
2019-01-21T17:53:30.778Z,63.56
2019-01-21T17:56:03.838Z,62.86
2019-01-21T17:58:39.789Z,62.76
2019-01-21T18:01:12.806Z,63.95
2019-01-21T18:03:46.656Z,63.41
2019-01-21T18:06:17.890Z,63.23
2019-01-21T18:08:52.180Z,63.86
2019-01-21T18:11:27.525Z,64.24
2019-01-21T18:13:59.916Z,64.18
2019-01-21T18:16:31.157Z,64.12
2019-01-21T18:19:03.733Z,63.41
2019-01-21T18:21:40.228Z,63.69
2019-01-21T18:24:11.555Z,64.63
2019-01-21T18:26:43.877Z,63.95
2019-01-21T18:29:17.872Z,64.30
2019-01-21T18:31:54.193Z,64.95
2019-01-21T18:34:25.913Z,65.38
2019-01-21T18:37:01.641Z,64.96
2019-01-21T18:39:32.973Z,64.29
2019-01-21T18:42:07.256Z,65.11
2019-01-21T18:44:39.298Z,64.62
2019-01-21T18:47:13.100Z,64.68
2019-01-21T18:49:44.603Z,65.79
2019-01-21T18:52:18.016Z,65.12
2019-01-21T18:54:51.872Z,64.12
2019-01-21T18:57:23.219Z,63.64
2019-01-21T18:59:57.093Z,65.57
2019-01-21T19:02:31.746Z,64.85
2019-01-21T19:05:04.690Z,65.17
2019-01-21T19:07:36.113Z,65.91
2019-01-21T19:10:08.805Z,64.77
2019-01-21T19:12:41.280Z,64.82
2019-01-21T19:15:18.605Z,65.45
2019-01-21T19:17:52.205Z,65.25
2019-01-21T19:20:26.049Z,65.42
2019-01-21T19:22:57.381Z,66.05
2019-01-21T19:25:30.182Z,65.41
2019-01-21T19:28:02.552Z,64.19
2019-01-21T19:30:36.138Z,65.07
2019-01-21T19:33:07.753Z,65.49
2019-01-21T19:35:41.216Z,65.30
2019-01-21T19:38:13.040Z,65.69
2019-01-21T19:40:46.293Z,66.00
2019-01-21T19:43:20.500Z,66.05
2019-01-21T19:45:54.804Z,66.27
2019-01-21T19:48:28.216Z,65.70
2019-01-21T19:51:02.280Z,65.86
2019-01-21T19:53:39.056Z,65.95
2019-01-21T19:56:10.342Z,65.20
2019-01-21T19:58:45.796Z,65.02
2019-01-21T20:01:19.607Z,65.11
2019-01-21T20:03:53.343Z,64.75
2019-01-21T20:06:26.415Z,65.16
2019-01-21T20:09:00.149Z,64.39
2019-01-21T20:11:34.826Z,65.39
2019-01-21T20:14:04.420Z,65.12
2019-01-21T20:16:36.325Z,64.41
2019-01-21T20:19:10.389Z,66.03
2019-01-21T20:21:44.277Z,65.44
2019-01-21T20:24:18.314Z,64.69
2019-01-21T20:26:52.288Z,66.37
2019-01-21T20:29:28.106Z,65.36
2019-01-21T20:31:59.526Z,66.18
2019-01-21T20:34:31.516Z,65.49
2019-01-21T20:37:03.945Z,65.32
2019-01-21T20:39:35.642Z,64.43
2019-01-21T20:42:07.656Z,65.58
2019-01-21T20:44:40.578Z,66.18
2019-01-21T20:47:13.550Z,65.05
2019-01-21T20:49:45.933Z,65.23
2019-01-21T20:52:19.630Z,65.50
2019-01-21T20:54:53.701Z,64.79
2019-01-21T20:57:27.642Z,65.14
2019-01-21T21:00:03.123Z,65.64
2019-01-21T21:02:34.816Z,64.86
2019-01-21T21:05:07.036Z,66.10
2019-01-21T21:07:40.745Z,66.13
2019-01-21T21:10:16.419Z,66.13
2019-01-21T21:12:49.389Z,66.38
2019-01-21T21:15:26.788Z,66.08
2019-01-21T21:18:00.680Z,66.08
2019-01-21T21:20:34.516Z,65.37
2019-01-21T21:23:07.638Z,65.37
2019-01-21T21:25:39.722Z,67.14
2019-01-21T21:28:14.479Z,66.37
2019-01-21T21:30:46.787Z,66.13
2019-01-21T21:33:18.182Z,66.13
2019-01-21T21:35:51.745Z,65.85
2019-01-21T21:38:23.720Z,66.57
2019-01-21T21:40:56.689Z,65.63
2019-01-21T21:46:53.101Z,66.65
2019-01-21T21:49:24.739Z,66.69
2019-01-21T21:51:57.839Z,65.25
2019-01-21T21:54:31.962Z,65.22
2019-01-21T21:57:04.096Z,65.77
2019-01-21T21:59:36.657Z,66.21
2019-01-21T22:02:08.371Z,66.69
2019-01-21T22:04:41.775Z,66.69
2019-01-21T22:07:16.166Z,67.04
2019-01-21T22:09:48.990Z,66.94
2019-01-21T22:12:21.878Z,67.12
2019-01-21T22:14:54.873Z,65.88
2019-01-21T22:17:29.075Z,65.88
2019-01-21T22:20:01.906Z,65.09
2019-01-21T22:22:34.878Z,65.92
2019-01-21T22:25:08.319Z,65.92
2019-01-21T22:27:41.962Z,65.43
2019-01-21T22:30:18.521Z,65.43
2019-01-21T22:32:49.768Z,65.93
2019-01-21T22:35:21.011Z,65.93
2019-01-21T22:37:55.023Z,67.07
2019-01-21T22:40:29.046Z,66.22
2019-01-21T22:43:01.842Z,65.91
2019-01-21T22:45:34.216Z,66.39
2019-01-21T22:48:07.215Z,66.39
2019-01-21T22:50:40.208Z,65.65
2019-01-21T22:53:13.191Z,66.54
2019-01-21T22:55:47.162Z,66.77
2019-01-21T22:58:23.042Z,66.49
2019-01-21T23:01:11.443Z,66.77
2019-01-21T23:03:44.182Z,66.77
2019-01-21T23:06:18.226Z,65.14
2019-01-21T23:08:53.707Z,65.25
2019-01-21T23:11:26.033Z,66.46
2019-01-21T23:13:57.502Z,66.64
2019-01-21T23:16:32.057Z,66.64
2019-01-21T23:19:04.805Z,66.34
2019-01-21T23:21:36.014Z,64.59
2019-01-21T23:24:10.264Z,65.58
2019-01-21T23:26:44.094Z,66.07
2019-01-21T23:29:16.223Z,66.07
2019-01-21T23:31:49.228Z,65.92
2019-01-21T23:34:20.472Z,65.92
2019-01-21T23:36:55.952Z,65.43
2019-01-21T23:39:28.732Z,65.92
2019-01-21T23:42:03.804Z,66.79
2019-01-21T23:44:36.243Z,65.87
2019-01-21T23:47:09.680Z,66.83
2019-01-21T23:49:40.895Z,66.83
2019-01-21T23:52:14.561Z,66.32
2019-01-21T23:54:48.216Z,65.87
2019-01-21T23:57:22.388Z,65.87
2019-01-21T23:59:58.253Z,68.23
